sensor_id;sensor_type;location;lat;lon;timestamp;P1;durP1;ratioP1;P2;durP2;ratioP2
80384;SDS011;69702;44.618;33.604;2023-04-25T18:29:19;21.70;;;13.75;;
80384;SDS011;69702;44.618;33.604;2023-04-25T18:31:45;20.05;;;13.68;;
80384;SDS011;69702;44.618;33.604;2023-04-25T18:34:11;18.95;;;12.95;;
80384;SDS011;69702;44.618;33.604;2023-04-25T18:36:37;20.50;;;14.02;;
80384;SDS011;69702;44.618;33.604;2023-04-25T18:39:03;18.40;;;13.47;;
80384;SDS011;69702;44.618;33.604;2023-04-25T18:44:07;22.85;;;11.98;;
80384;SDS011;69702;44.618;33.604;2023-04-25T18:46:33;11.37;;;7.10;;
80384;SDS011;69702;44.618;33.604;2023-04-25T18:49:00;17.88;;;11.15;;
80384;SDS011;69702;44.618;33.604;2023-04-25T18:51:29;16.85;;;10.75;;
80384;SDS011;69702;44.618;33.604;2023-04-25T18:53:56;18.70;;;11.77;;
80384;SDS011;69702;44.618;33.604;2023-04-25T18:56:23;21.75;;;12.88;;
80384;SDS011;69702;44.618;33.604;2023-04-25T18:58:50;23.70;;;14.73;;
80384;SDS011;69702;44.618;33.604;2023-04-25T19:01:17;22.90;;;12.40;;
80384;SDS011;69702;44.618;33.604;2023-04-25T19:03:44;24.77;;;14.50;;
80384;SDS011;69702;44.618;33.604;2023-04-25T19:06:10;24.25;;;15.05;;
80384;SDS011;69702;44.618;33.604;2023-04-25T19:08:36;25.67;;;14.23;;
80384;SDS011;69702;44.618;33.604;2023-04-25T19:11:02;24.80;;;14.30;;
80384;SDS011;69702;44.618;33.604;2023-04-25T19:13:29;20.80;;;12.15;;
80384;SDS011;69702;44.618;33.604;2023-04-25T19:15:55;16.95;;;10.07;;
80384;SDS011;69702;44.618;33.604;2023-04-25T19:18:23;14.10;;;8.85;;
80384;SDS011;69702;44.618;33.604;2023-04-25T19:20:49;11.93;;;7.73;;
80384;SDS011;69702;44.618;33.604;2023-04-25T19:23:15;12.75;;;8.10;;
80384;SDS011;69702;44.618;33.604;2023-04-25T19:25:41;10.98;;;7.90;;
80384;SDS011;69702;44.618;33.604;2023-04-25T19:28:07;11.38;;;7.50;;
80384;SDS011;69702;44.618;33.604;2023-04-25T19:30:36;11.13;;;7.07;;
80384;SDS011;69702;44.618;33.604;2023-04-25T19:33:02;10.05;;;6.88;;
80384;SDS011;69702;44.618;33.604;2023-04-25T19:35:28;11.32;;;7.88;;
80384;SDS011;69702;44.618;33.604;2023-04-25T19:37:57;10.63;;;7.25;;
80384;SDS011;69702;44.618;33.604;2023-04-25T19:40:24;12.77;;;8.00;;
80384;SDS011;69702;44.618;33.604;2023-04-25T19:42:50;10.83;;;7.23;;
80384;SDS011;69702;44.618;33.604;2023-04-25T19:45:16;9.45;;;6.38;;
80384;SDS011;69702;44.618;33.604;2023-04-25T19:47:42;14.85;;;9.60;;
80384;SDS011;69702;44.618;33.604;2023-04-25T19:50:08;13.05;;;8.73;;
80384;SDS011;69702;44.618;33.604;2023-04-25T19:52:35;11.90;;;7.23;;
80384;SDS011;69702;44.618;33.604;2023-04-25T19:55:01;11.70;;;7.57;;
80384;SDS011;69702;44.618;33.604;2023-04-25T19:57:32;11.30;;;7.57;;
80384;SDS011;69702;44.618;33.604;2023-04-25T19:59:59;11.88;;;6.45;;
80384;SDS011;69702;44.618;33.604;2023-04-25T20:02:26;10.30;;;7.55;;
80384;SDS011;69702;44.618;33.604;2023-04-25T20:04:52;14.70;;;7.23;;
80384;SDS011;69702;44.618;33.604;2023-04-25T20:07:18;11.48;;;7.43;;
80384;SDS011;69702;44.618;33.604;2023-04-25T20:09:46;11.07;;;7.28;;
80384;SDS011;69702;44.618;33.604;2023-04-25T20:12:13;9.48;;;6.63;;
80384;SDS011;69702;44.618;33.604;2023-04-25T20:14:39;10.15;;;6.57;;
80384;SDS011;69702;44.618;33.604;2023-04-25T20:17:06;10.90;;;6.20;;
80384;SDS011;69702;44.618;33.604;2023-04-25T20:19:38;10.70;;;6.55;;
80384;SDS011;69702;44.618;33.604;2023-04-25T20:22:04;11.00;;;5.90;;
80384;SDS011;69702;44.618;33.604;2023-04-25T20:24:30;11.25;;;6.68;;
80384;SDS011;69702;44.618;33.604;2023-04-25T20:26:56;11.20;;;7.68;;
80384;SDS011;69702;44.618;33.604;2023-04-25T20:29:23;12.20;;;8.00;;
80384;SDS011;69702;44.618;33.604;2023-04-25T20:31:50;11.00;;;7.80;;
80384;SDS011;69702;44.618;33.604;2023-04-25T20:34:20;12.10;;;8.23;;
80384;SDS011;69702;44.618;33.604;2023-04-25T20:36:46;11.35;;;7.47;;
80384;SDS011;69702;44.618;33.604;2023-04-25T20:39:12;44.40;;;28.75;;
80384;SDS011;69702;44.618;33.604;2023-04-25T20:41:39;11.63;;;8.03;;
80384;SDS011;69702;44.618;33.604;2023-04-25T20:44:05;11.32;;;7.85;;
80384;SDS011;69702;44.618;33.604;2023-04-25T20:46:35;10.27;;;7.50;;
80384;SDS011;69702;44.618;33.604;2023-04-25T20:49:01;9.95;;;6.63;;
80384;SDS011;69702;44.618;33.604;2023-04-25T20:51:32;12.40;;;8.32;;
80384;SDS011;69702;44.618;33.604;2023-04-25T20:53:59;11.10;;;7.40;;
80384;SDS011;69702;44.618;33.604;2023-04-25T20:56:28;12.00;;;7.18;;
80384;SDS011;69702;44.618;33.604;2023-04-25T20:58:54;14.68;;;8.35;;
80384;SDS011;69702;44.618;33.604;2023-04-25T21:01:22;12.65;;;7.40;;
80384;SDS011;69702;44.618;33.604;2023-04-25T21:03:49;10.68;;;7.68;;
80384;SDS011;69702;44.618;33.604;2023-04-25T21:06:16;10.97;;;6.73;;
80384;SDS011;69702;44.618;33.604;2023-04-25T21:08:42;12.32;;;7.05;;
80384;SDS011;69702;44.618;33.604;2023-04-25T21:11:07;13.00;;;7.22;;
80384;SDS011;69702;44.618;33.604;2023-04-25T21:13:34;9.82;;;6.43;;
80384;SDS011;69702;44.618;33.604;2023-04-25T21:16:00;11.27;;;7.05;;
80384;SDS011;69702;44.618;33.604;2023-04-25T21:18:27;10.20;;;7.37;;
80384;SDS011;69702;44.618;33.604;2023-04-25T21:20:54;14.05;;;7.43;;
80384;SDS011;69702;44.618;33.604;2023-04-25T21:23:20;13.70;;;8.60;;
80384;SDS011;69702;44.618;33.604;2023-04-25T21:25:46;12.23;;;7.55;;
80384;SDS011;69702;44.618;33.604;2023-04-25T21:28:13;9.37;;;6.83;;
80384;SDS011;69702;44.618;33.604;2023-04-25T21:30:39;7.57;;;5.03;;
80384;SDS011;69702;44.618;33.604;2023-04-25T21:33:06;10.10;;;6.65;;
80384;SDS011;69702;44.618;33.604;2023-04-25T21:35:32;7.53;;;5.70;;
80384;SDS011;69702;44.618;33.604;2023-04-25T21:37:58;9.30;;;6.10;;
80384;SDS011;69702;44.618;33.604;2023-04-25T21:40:24;9.32;;;5.25;;
80384;SDS011;69702;44.618;33.604;2023-04-25T21:42:50;7.28;;;5.35;;
80384;SDS011;69702;44.618;33.604;2023-04-25T21:45:17;11.00;;;5.85;;
80384;SDS011;69702;44.618;33.604;2023-04-25T21:47:44;10.07;;;6.07;;
80384;SDS011;69702;44.618;33.604;2023-04-25T21:50:11;12.32;;;6.07;;
80384;SDS011;69702;44.618;33.604;2023-04-25T21:52:37;9.07;;;5.70;;
80384;SDS011;69702;44.618;33.604;2023-04-25T21:55:03;11.43;;;7.05;;
80384;SDS011;69702;44.618;33.604;2023-04-25T21:57:30;10.32;;;6.68;;
80384;SDS011;69702;44.618;33.604;2023-04-25T21:59:56;15.55;;;9.50;;
80384;SDS011;69702;44.618;33.604;2023-04-25T22:02:21;15.95;;;11.48;;
80384;SDS011;69702;44.618;33.604;2023-04-25T22:04:48;23.52;;;11.82;;
80384;SDS011;69702;44.618;33.604;2023-04-25T22:07:14;21.15;;;12.65;;
80384;SDS011;69702;44.618;33.604;2023-04-25T22:09:40;24.00;;;13.23;;
80384;SDS011;69702;44.618;33.604;2023-04-25T22:12:07;21.58;;;12.88;;
80384;SDS011;69702;44.618;33.604;2023-04-25T22:14:33;22.70;;;13.30;;
80384;SDS011;69702;44.618;33.604;2023-04-25T22:17:02;21.25;;;13.45;;
80384;SDS011;69702;44.618;33.604;2023-04-25T22:19:29;22.33;;;12.40;;
80384;SDS011;69702;44.618;33.604;2023-04-25T22:21:55;22.17;;;13.10;;
80384;SDS011;69702;44.618;33.604;2023-04-25T22:24:21;23.38;;;12.48;;
80384;SDS011;69702;44.618;33.604;2023-04-25T22:26:48;23.10;;;13.60;;
80384;SDS011;69702;44.618;33.604;2023-04-25T22:29:14;25.35;;;14.30;;
80384;SDS011;69702;44.618;33.604;2023-04-25T22:31:40;25.73;;;13.20;;
80384;SDS011;69702;44.618;33.604;2023-04-25T22:34:06;24.35;;;13.18;;
80384;SDS011;69702;44.618;33.604;2023-04-25T22:36:33;18.27;;;11.73;;
80384;SDS011;69702;44.618;33.604;2023-04-25T22:38:59;20.90;;;11.80;;
80384;SDS011;69702;44.618;33.604;2023-04-25T22:41:24;17.35;;;9.85;;
80384;SDS011;69702;44.618;33.604;2023-04-25T22:43:51;17.63;;;10.50;;
80384;SDS011;69702;44.618;33.604;2023-04-25T22:46:18;20.23;;;10.65;;
80384;SDS011;69702;44.618;33.604;2023-04-25T22:48:45;17.27;;;10.80;;
80384;SDS011;69702;44.618;33.604;2023-04-25T22:51:12;16.63;;;9.40;;
80384;SDS011;69702;44.618;33.604;2023-04-25T22:53:38;14.23;;;8.55;;
80384;SDS011;69702;44.618;33.604;2023-04-25T22:56:05;16.20;;;9.30;;
80384;SDS011;69702;44.618;33.604;2023-04-25T22:58:32;13.73;;;8.63;;
80384;SDS011;69702;44.618;33.604;2023-04-25T23:00:58;12.27;;;8.70;;
80384;SDS011;69702;44.618;33.604;2023-04-25T23:03:25;14.15;;;8.48;;
80384;SDS011;69702;44.618;33.604;2023-04-25T23:05:51;12.80;;;8.40;;
80384;SDS011;69702;44.618;33.604;2023-04-25T23:08:17;13.90;;;8.20;;
80384;SDS011;69702;44.618;33.604;2023-04-25T23:10:43;12.75;;;7.28;;
80384;SDS011;69702;44.618;33.604;2023-04-25T23:13:09;11.43;;;6.95;;
80384;SDS011;69702;44.618;33.604;2023-04-25T23:15:36;12.60;;;7.43;;
80384;SDS011;69702;44.618;33.604;2023-04-25T23:18:02;13.05;;;7.93;;
80384;SDS011;69702;44.618;33.604;2023-04-25T23:20:28;10.00;;;7.38;;
80384;SDS011;69702;44.618;33.604;2023-04-25T23:22:54;11.85;;;8.18;;
80384;SDS011;69702;44.618;33.604;2023-04-25T23:25:20;12.57;;;7.63;;
80384;SDS011;69702;44.618;33.604;2023-04-25T23:27:46;14.55;;;8.48;;
80384;SDS011;69702;44.618;33.604;2023-04-25T23:30:13;14.35;;;8.05;;
80384;SDS011;69702;44.618;33.604;2023-04-25T23:32:39;12.82;;;7.68;;
80384;SDS011;69702;44.618;33.604;2023-04-25T23:35:06;12.05;;;7.25;;
80384;SDS011;69702;44.618;33.604;2023-04-25T23:37:36;13.32;;;8.60;;
80384;SDS011;69702;44.618;33.604;2023-04-25T23:40:06;10.85;;;7.13;;
80384;SDS011;69702;44.618;33.604;2023-04-25T23:42:34;12.73;;;7.45;;
80384;SDS011;69702;44.618;33.604;2023-04-25T23:45:04;12.27;;;6.55;;
80384;SDS011;69702;44.618;33.604;2023-04-25T23:47:31;11.70;;;6.90;;
80384;SDS011;69702;44.618;33.604;2023-04-25T23:49:57;13.38;;;7.45;;
80384;SDS011;69702;44.618;33.604;2023-04-25T23:52:23;11.87;;;7.30;;
80384;SDS011;69702;44.618;33.604;2023-04-25T23:54:49;9.07;;;6.60;;
80384;SDS011;69702;44.618;33.604;2023-04-25T23:57:15;9.40;;;6.55;;
80384;SDS011;69702;44.618;33.604;2023-04-25T23:59:42;8.98;;;6.45;;
